KHQM/HQM METAR and TAF weather

Enter ICAO airport designator
Station Type Date Time Source
KHQM METAR 2022/01/26 19:53 UTC NOAA

KHQM 261953Z AUTO 09009KT 10SM CLR 08/03 A3025 RMK AO2 SLP248 T00780033


Station Type Date Time Source
KHQM Decoded METAR 2022/01/26 19:53 UTC NOAA

HOQUIAM BOWERMAN AIRPORT, WA, United States (KHQM) 46-58N 123-56W 7M
Jan 26, 2022 - 02:53 PM EST / 2022.01.26 1953 UTC
Wind: from the E (090 degrees) at 10 MPH (9 KT):0
Visibility: 10 mile(s):0
Sky conditions: clear
Temperature: 46.0 F (7.8 C)
Dew Point: 37.9 F (3.3 C)
Relative Humidity: 73%
Pressure (altimeter): 30.25 in. Hg (1024 hPa)
ob: KHQM 261953Z AUTO 09009KT 10SM CLR 08/03 A3025 RMK AO2 SLP248 T00780033
cycle: 20

Station Type Date Time Source
KHQM TAF 2022/01/26 18:36 UTC NOAA

TAF KHQM 261733Z 2618/2718 08012KT P6SM SCT030
FM270600 06007KT P6SM SKC

Example: see airport list